METAR & TAF Report
Available data for CYAM from the past 6 hours
SAULT STE MARIE, ON
Metar
CYAM 231000Z 08003KT 060V150 1/8SM R12/2400FT/N FG VV001 07/06 A2983 RMK FG8 SLP108

10:00 UTC

Wind: 80° 3kt

Visibility: 0.125 SM

Sky: VV 100 ft

Temp: 7 deg C / 44.6 deg F

Dewpoint: 6 deg C / 42.8 deg F

Pressure: 29.83 inHg

TAF
TAF AMD CYAM 230808Z 2308/2320 VRB03KT 1/2SM FG SKC TEMPO 2308/2311 1/4SM FG FM231100 VRB03KT 1/4SM FG SKC BECMG 2311/2313 30007KT P6SM NSW RMK NXT FCST BY 231400Z
NOTAM

Click here for NOTAMs.